sensor_id;sensor_type;location;lat;lon;timestamp;P1;durP1;ratioP1;P2;durP2;ratioP2
58581;SDS011;44361;51.476;5.700;2023-04-03T00:00:48;8.52;;;5.07;;
58581;SDS011;44361;51.476;5.700;2023-04-03T00:03:14;8.70;;;4.72;;
58581;SDS011;44361;51.476;5.700;2023-04-03T00:05:40;9.57;;;5.00;;
58581;SDS011;44361;51.476;5.700;2023-04-03T00:08:06;10.57;;;6.22;;
58581;SDS011;44361;51.476;5.700;2023-04-03T00:10:34;9.82;;;5.75;;
58581;SDS011;44361;51.476;5.700;2023-04-03T00:13:00;10.07;;;6.13;;
58581;SDS011;44361;51.476;5.700;2023-04-03T00:15:26;11.18;;;6.10;;
58581;SDS011;44361;51.476;5.700;2023-04-03T00:17:51;15.15;;;6.03;;
58581;SDS011;44361;51.476;5.700;2023-04-03T00:20:17;9.07;;;5.10;;
58581;SDS011;44361;51.476;5.700;2023-04-03T00:22:42;13.18;;;5.88;;
58581;SDS011;44361;51.476;5.700;2023-04-03T00:25:08;9.23;;;5.43;;
58581;SDS011;44361;51.476;5.700;2023-04-03T00:27:35;11.57;;;6.15;;
58581;SDS011;44361;51.476;5.700;2023-04-03T00:30:03;8.55;;;5.65;;
58581;SDS011;44361;51.476;5.700;2023-04-03T00:32:28;11.35;;;6.07;;
58581;SDS011;44361;51.476;5.700;2023-04-03T00:34:54;9.60;;;5.75;;
58581;SDS011;44361;51.476;5.700;2023-04-03T00:37:20;12.05;;;5.65;;
58581;SDS011;44361;51.476;5.700;2023-04-03T00:39:45;8.30;;;5.47;;
58581;SDS011;44361;51.476;5.700;2023-04-03T00:42:11;7.95;;;4.95;;
58581;SDS011;44361;51.476;5.700;2023-04-03T00:47:03;11.60;;;5.93;;
58581;SDS011;44361;51.476;5.700;2023-04-03T00:49:30;8.98;;;5.50;;
58581;SDS011;44361;51.476;5.700;2023-04-03T00:51:56;9.35;;;5.68;;
58581;SDS011;44361;51.476;5.700;2023-04-03T00:54:23;11.13;;;6.43;;
58581;SDS011;44361;51.476;5.700;2023-04-03T00:56:49;9.93;;;5.38;;
58581;SDS011;44361;51.476;5.700;2023-04-03T00:59:19;11.65;;;6.28;;
58581;SDS011;44361;51.476;5.700;2023-04-03T01:01:50;11.82;;;5.80;;
58581;SDS011;44361;51.476;5.700;2023-04-03T01:04:27;12.20;;;5.22;;
58581;SDS011;44361;51.476;5.700;2023-04-03T01:06:57;10.25;;;5.45;;
58581;SDS011;44361;51.476;5.700;2023-04-03T01:09:26;8.60;;;5.43;;
58581;SDS011;44361;51.476;5.700;2023-04-03T01:11:53;9.68;;;5.43;;
58581;SDS011;44361;51.476;5.700;2023-04-03T01:14:18;9.10;;;5.55;;
58581;SDS011;44361;51.476;5.700;2023-04-03T01:16:53;8.35;;;5.80;;
58581;SDS011;44361;51.476;5.700;2023-04-03T01:19:19;11.75;;;5.95;;
58581;SDS011;44361;51.476;5.700;2023-04-03T01:27:01;11.05;;;5.80;;
58581;SDS011;44361;51.476;5.700;2023-04-03T01:29:28;11.38;;;5.82;;
58581;SDS011;44361;51.476;5.700;2023-04-03T01:31:58;9.43;;;6.22;;
58581;SDS011;44361;51.476;5.700;2023-04-03T01:34:25;9.40;;;5.97;;
58581;SDS011;44361;51.476;5.700;2023-04-03T01:36:52;11.70;;;6.43;;
58581;SDS011;44361;51.476;5.700;2023-04-03T01:39:17;9.98;;;5.97;;
58581;SDS011;44361;51.476;5.700;2023-04-03T01:41:44;12.27;;;6.53;;
58581;SDS011;44361;51.476;5.700;2023-04-03T01:44:09;11.25;;;6.32;;
58581;SDS011;44361;51.476;5.700;2023-04-03T01:46:35;11.48;;;6.50;;
58581;SDS011;44361;51.476;5.700;2023-04-03T01:49:02;14.68;;;6.82;;
58581;SDS011;44361;51.476;5.700;2023-04-03T01:51:28;9.57;;;6.60;;
58581;SDS011;44361;51.476;5.700;2023-04-03T01:53:54;16.30;;;7.25;;
58581;SDS011;44361;51.476;5.700;2023-04-03T01:56:19;12.70;;;5.85;;
58581;SDS011;44361;51.476;5.700;2023-04-03T01:58:45;12.55;;;6.70;;
58581;SDS011;44361;51.476;5.700;2023-04-03T02:01:10;11.25;;;6.43;;
58581;SDS011;44361;51.476;5.700;2023-04-03T02:03:36;8.68;;;6.30;;
58581;SDS011;44361;51.476;5.700;2023-04-03T02:06:01;12.50;;;6.18;;
58581;SDS011;44361;51.476;5.700;2023-04-03T02:08:27;11.20;;;6.18;;
58581;SDS011;44361;51.476;5.700;2023-04-03T02:10:53;10.60;;;5.85;;
58581;SDS011;44361;51.476;5.700;2023-04-03T02:13:18;12.68;;;6.63;;
58581;SDS011;44361;51.476;5.700;2023-04-03T02:15:44;11.90;;;6.47;;
58581;SDS011;44361;51.476;5.700;2023-04-03T02:18:10;9.45;;;6.75;;
58581;SDS011;44361;51.476;5.700;2023-04-03T02:20:36;12.38;;;7.28;;
58581;SDS011;44361;51.476;5.700;2023-04-03T02:23:01;10.73;;;6.47;;
58581;SDS011;44361;51.476;5.700;2023-04-03T02:25:27;14.27;;;6.45;;
58581;SDS011;44361;51.476;5.700;2023-04-03T02:27:53;10.60;;;7.03;;
58581;SDS011;44361;51.476;5.700;2023-04-03T02:30:18;14.77;;;6.90;;
58581;SDS011;44361;51.476;5.700;2023-04-03T02:32:44;13.23;;;7.18;;
58581;SDS011;44361;51.476;5.700;2023-04-03T02:35:10;11.07;;;6.47;;
58581;SDS011;44361;51.476;5.700;2023-04-03T02:37:37;17.25;;;6.40;;
58581;SDS011;44361;51.476;5.700;2023-04-03T02:40:02;14.23;;;7.22;;
58581;SDS011;44361;51.476;5.700;2023-04-03T02:42:29;11.27;;;6.07;;
58581;SDS011;44361;51.476;5.700;2023-04-03T02:44:55;10.55;;;6.20;;
58581;SDS011;44361;51.476;5.700;2023-04-03T02:47:20;12.20;;;7.40;;
58581;SDS011;44361;51.476;5.700;2023-04-03T02:49:46;13.63;;;6.75;;
58581;SDS011;44361;51.476;5.700;2023-04-03T02:52:12;13.23;;;6.38;;
58581;SDS011;44361;51.476;5.700;2023-04-03T02:54:38;11.57;;;6.22;;
58581;SDS011;44361;51.476;5.700;2023-04-03T02:57:04;8.65;;;5.88;;
58581;SDS011;44361;51.476;5.700;2023-04-03T02:59:29;8.88;;;6.00;;
58581;SDS011;44361;51.476;5.700;2023-04-03T03:01:55;10.43;;;6.20;;
58581;SDS011;44361;51.476;5.700;2023-04-03T03:04:21;14.32;;;6.13;;
58581;SDS011;44361;51.476;5.700;2023-04-03T03:06:47;11.45;;;6.97;;
58581;SDS011;44361;51.476;5.700;2023-04-03T03:09:13;10.45;;;5.65;;
58581;SDS011;44361;51.476;5.700;2023-04-03T03:11:38;13.30;;;6.25;;
58581;SDS011;44361;51.476;5.700;2023-04-03T03:14:04;11.00;;;6.10;;
58581;SDS011;44361;51.476;5.700;2023-04-03T03:16:30;10.32;;;6.25;;
58581;SDS011;44361;51.476;5.700;2023-04-03T03:18:56;11.18;;;6.43;;
58581;SDS011;44361;51.476;5.700;2023-04-03T03:21:21;11.93;;;6.05;;
58581;SDS011;44361;51.476;5.700;2023-04-03T03:23:47;11.68;;;5.82;;
58581;SDS011;44361;51.476;5.700;2023-04-03T03:26:12;10.30;;;5.72;;
58581;SDS011;44361;51.476;5.700;2023-04-03T03:28:38;12.88;;;5.85;;
58581;SDS011;44361;51.476;5.700;2023-04-03T03:31:04;12.90;;;5.47;;
58581;SDS011;44361;51.476;5.700;2023-04-03T03:33:31;12.52;;;5.50;;
58581;SDS011;44361;51.476;5.700;2023-04-03T03:35:56;14.05;;;4.57;;
58581;SDS011;44361;51.476;5.700;2023-04-03T03:38:22;9.75;;;5.88;;
58581;SDS011;44361;51.476;5.700;2023-04-03T03:40:48;11.88;;;5.93;;
58581;SDS011;44361;51.476;5.700;2023-04-03T03:43:15;8.55;;;5.55;;
58581;SDS011;44361;51.476;5.700;2023-04-03T03:45:41;8.20;;;4.80;;
58581;SDS011;44361;51.476;5.700;2023-04-03T03:48:07;8.98;;;4.93;;
58581;SDS011;44361;51.476;5.700;2023-04-03T03:50:33;10.77;;;5.47;;
58581;SDS011;44361;51.476;5.700;2023-04-03T03:53:00;10.25;;;5.38;;
58581;SDS011;44361;51.476;5.700;2023-04-03T03:55:25;15.93;;;5.35;;
58581;SDS011;44361;51.476;5.700;2023-04-03T03:57:51;11.60;;;4.95;;
58581;SDS011;44361;51.476;5.700;2023-04-03T04:00:16;7.22;;;4.75;;
58581;SDS011;44361;51.476;5.700;2023-04-03T04:02:42;11.45;;;5.40;;
58581;SDS011;44361;51.476;5.700;2023-04-03T04:05:08;8.52;;;4.95;;
58581;SDS011;44361;51.476;5.700;2023-04-03T04:07:34;8.45;;;4.82;;
58581;SDS011;44361;51.476;5.700;2023-04-03T04:09:59;9.57;;;5.35;;
58581;SDS011;44361;51.476;5.700;2023-04-03T04:12:25;8.43;;;5.15;;
58581;SDS011;44361;51.476;5.700;2023-04-03T04:14:51;8.45;;;5.13;;
58581;SDS011;44361;51.476;5.700;2023-04-03T04:17:16;11.93;;;4.97;;
58581;SDS011;44361;51.476;5.700;2023-04-03T04:19:41;11.70;;;4.22;;
58581;SDS011;44361;51.476;5.700;2023-04-03T04:22:07;10.57;;;5.13;;
58581;SDS011;44361;51.476;5.700;2023-04-03T04:24:32;10.25;;;4.88;;
58581;SDS011;44361;51.476;5.700;2023-04-03T04:26:58;9.23;;;4.43;;
58581;SDS011;44361;51.476;5.700;2023-04-03T04:29:24;14.95;;;4.60;;
58581;SDS011;44361;51.476;5.700;2023-04-03T04:31:49;7.03;;;4.18;;
58581;SDS011;44361;51.476;5.700;2023-04-03T04:34:15;10.63;;;4.35;;
58581;SDS011;44361;51.476;5.700;2023-04-03T04:36:41;11.02;;;4.68;;
58581;SDS011;44361;51.476;5.700;2023-04-03T04:39:06;9.52;;;4.35;;
58581;SDS011;44361;51.476;5.700;2023-04-03T04:41:32;8.57;;;4.18;;
58581;SDS011;44361;51.476;5.700;2023-04-03T04:43:57;12.88;;;3.97;;
58581;SDS011;44361;51.476;5.700;2023-04-03T04:46:23;5.93;;;3.78;;
58581;SDS011;44361;51.476;5.700;2023-04-03T04:48:49;7.63;;;3.75;;
58581;SDS011;44361;51.476;5.700;2023-04-03T04:51:14;6.00;;;3.65;;
58581;SDS011;44361;51.476;5.700;2023-04-03T04:53:40;10.77;;;3.50;;
58581;SDS011;44361;51.476;5.700;2023-04-03T04:56:07;7.53;;;3.72;;
58581;SDS011;44361;51.476;5.700;2023-04-03T04:58:33;7.22;;;3.25;;
58581;SDS011;44361;51.476;5.700;2023-04-03T05:01:03;7.40;;;3.65;;
58581;SDS011;44361;51.476;5.700;2023-04-03T05:03:30;6.72;;;3.30;;
58581;SDS011;44361;51.476;5.700;2023-04-03T05:05:56;7.28;;;3.40;;
58581;SDS011;44361;51.476;5.700;2023-04-03T05:08:21;5.88;;;3.17;;
58581;SDS011;44361;51.476;5.700;2023-04-03T05:10:48;9.23;;;3.33;;
58581;SDS011;44361;51.476;5.700;2023-04-03T05:13:13;5.80;;;3.10;;
58581;SDS011;44361;51.476;5.700;2023-04-03T05:15:39;4.63;;;3.25;;
58581;SDS011;44361;51.476;5.700;2023-04-03T05:18:05;4.18;;;2.83;;
58581;SDS011;44361;51.476;5.700;2023-04-03T05:20:31;10.65;;;3.33;;
58581;SDS011;44361;51.476;5.700;2023-04-03T05:22:57;7.43;;;3.25;;
58581;SDS011;44361;51.476;5.700;2023-04-03T05:25:23;6.90;;;3.58;;
58581;SDS011;44361;51.476;5.700;2023-04-03T05:27:49;6.80;;;2.63;;
58581;SDS011;44361;51.476;5.700;2023-04-03T05:30:15;6.15;;;2.85;;
58581;SDS011;44361;51.476;5.700;2023-04-03T05:32:41;5.90;;;2.65;;
58581;SDS011;44361;51.476;5.700;2023-04-03T05:35:07;8.90;;;3.13;;
58581;SDS011;44361;51.476;5.700;2023-04-03T05:37:33;11.38;;;2.90;;
58581;SDS011;44361;51.476;5.700;2023-04-03T05:39:59;8.77;;;2.72;;
58581;SDS011;44361;51.476;5.700;2023-04-03T05:42:25;3.35;;;2.13;;
58581;SDS011;44361;51.476;5.700;2023-04-03T05:44:50;7.22;;;2.90;;
58581;SDS011;44361;51.476;5.700;2023-04-03T05:47:16;4.55;;;2.10;;
58581;SDS011;44361;51.476;5.700;2023-04-03T05:49:42;4.05;;;2.00;;
58581;SDS011;44361;51.476;5.700;2023-04-03T05:52:31;5.95;;;2.15;;
58581;SDS011;44361;51.476;5.700;2023-04-03T05:55:01;9.15;;;2.53;;
58581;SDS011;44361;51.476;5.700;2023-04-03T05:57:26;4.57;;;2.13;;
58581;SDS011;44361;51.476;5.700;2023-04-03T05:59:52;5.38;;;1.70;;
58581;SDS011;44361;51.476;5.700;2023-04-03T06:02:19;4.40;;;2.00;;
58581;SDS011;44361;51.476;5.700;2023-04-03T06:04:46;3.80;;;1.90;;
58581;SDS011;44361;51.476;5.700;2023-04-03T06:07:13;9.18;;;2.22;;
58581;SDS011;44361;51.476;5.700;2023-04-03T06:09:40;6.25;;;2.00;;
58581;SDS011;44361;51.476;5.700;2023-04-03T06:12:06;4.85;;;2.17;;
58581;SDS011;44361;51.476;5.700;2023-04-03T06:14:32;7.85;;;2.25;;
58581;SDS011;44361;51.476;5.700;2023-04-03T06:16:57;2.47;;;1.60;;
58581;SDS011;44361;51.476;5.700;2023-04-03T06:19:24;4.57;;;1.85;;
58581;SDS011;44361;51.476;5.700;2023-04-03T06:21:49;3.20;;;2.05;;
58581;SDS011;44361;51.476;5.700;2023-04-03T06:24:16;4.22;;;2.05;;
58581;SDS011;44361;51.476;5.700;2023-04-03T06:26:42;2.97;;;1.55;;
58581;SDS011;44361;51.476;5.700;2023-04-03T06:29:09;2.72;;;1.30;;
58581;SDS011;44361;51.476;5.700;2023-04-03T06:31:34;6.85;;;1.75;;
58581;SDS011;44361;51.476;5.700;2023-04-03T06:34:02;3.85;;;1.95;;
58581;SDS011;44361;51.476;5.700;2023-04-03T06:36:28;4.47;;;1.90;;
58581;SDS011;44361;51.476;5.700;2023-04-03T06:38:53;4.55;;;1.52;;
58581;SDS011;44361;51.476;5.700;2023-04-03T06:41:19;4.68;;;1.60;;
58581;SDS011;44361;51.476;5.700;2023-04-03T06:43:46;3.58;;;1.80;;
58581;SDS011;44361;51.476;5.700;2023-04-03T06:46:15;3.67;;;1.48;;
58581;SDS011;44361;51.476;5.700;2023-04-03T06:48:42;3.20;;;1.75;;
58581;SDS011;44361;51.476;5.700;2023-04-03T06:51:19;4.45;;;1.38;;
58581;SDS011;44361;51.476;5.700;2023-04-03T06:53:47;2.30;;;1.58;;
58581;SDS011;44361;51.476;5.700;2023-04-03T06:56:13;7.00;;;1.77;;
58581;SDS011;44361;51.476;5.700;2023-04-03T06:58:39;4.53;;;1.30;;
58581;SDS011;44361;51.476;5.700;2023-04-03T07:01:06;6.72;;;1.40;;
58581;SDS011;44361;51.476;5.700;2023-04-03T07:03:32;4.15;;;1.25;;
58581;SDS011;44361;51.476;5.700;2023-04-03T07:05:58;4.70;;;1.73;;
58581;SDS011;44361;51.476;5.700;2023-04-03T07:08:23;3.75;;;1.67;;
58581;SDS011;44361;51.476;5.700;2023-04-03T07:10:51;7.28;;;1.80;;
58581;SDS011;44361;51.476;5.700;2023-04-03T07:13:16;7.75;;;2.15;;
58581;SDS011;44361;51.476;5.700;2023-04-03T07:15:42;7.10;;;1.88;;
58581;SDS011;44361;51.476;5.700;2023-04-03T07:18:07;5.53;;;1.65;;
58581;SDS011;44361;51.476;5.700;2023-04-03T07:20:33;3.50;;;1.55;;
58581;SDS011;44361;51.476;5.700;2023-04-03T07:22:58;2.90;;;1.48;;
58581;SDS011;44361;51.476;5.700;2023-04-03T07:25:24;8.57;;;1.50;;
58581;SDS011;44361;51.476;5.700;2023-04-03T07:27:50;3.70;;;0.95;;
58581;SDS011;44361;51.476;5.700;2023-04-03T07:30:15;5.78;;;1.17;;
58581;SDS011;44361;51.476;5.700;2023-04-03T07:32:41;6.45;;;1.83;;
58581;SDS011;44361;51.476;5.700;2023-04-03T07:35:07;7.25;;;1.38;;
58581;SDS011;44361;51.476;5.700;2023-04-03T07:37:32;3.78;;;1.17;;
58581;SDS011;44361;51.476;5.700;2023-04-03T07:39:58;6.57;;;1.65;;
58581;SDS011;44361;51.476;5.700;2023-04-03T07:42:24;2.17;;;1.00;;
58581;SDS011;44361;51.476;5.700;2023-04-03T07:44:52;8.48;;;1.50;;
58581;SDS011;44361;51.476;5.700;2023-04-03T07:47:18;5.13;;;1.40;;
58581;SDS011;44361;51.476;5.700;2023-04-03T07:49:45;4.80;;;1.50;;
58581;SDS011;44361;51.476;5.700;2023-04-03T07:52:11;6.40;;;1.63;;
58581;SDS011;44361;51.476;5.700;2023-04-03T07:54:36;3.00;;;1.20;;
58581;SDS011;44361;51.476;5.700;2023-04-03T07:57:02;3.83;;;1.45;;
58581;SDS011;44361;51.476;5.700;2023-04-03T07:59:28;6.45;;;1.92;;
58581;SDS011;44361;51.476;5.700;2023-04-03T08:01:53;5.53;;;1.40;;
58581;SDS011;44361;51.476;5.700;2023-04-03T08:04:19;4.07;;;1.60;;
58581;SDS011;44361;51.476;5.700;2023-04-03T08:06:44;4.18;;;1.23;;
58581;SDS011;44361;51.476;5.700;2023-04-03T08:09:10;2.78;;;1.17;;
58581;SDS011;44361;51.476;5.700;2023-04-03T08:11:38;2.75;;;0.73;;
58581;SDS011;44361;51.476;5.700;2023-04-03T08:14:04;3.63;;;1.38;;
58581;SDS011;44361;51.476;5.700;2023-04-03T08:16:29;5.38;;;0.90;;
58581;SDS011;44361;51.476;5.700;2023-04-03T08:18:55;3.53;;;0.98;;
58581;SDS011;44361;51.476;5.700;2023-04-03T08:21:20;2.53;;;1.08;;
58581;SDS011;44361;51.476;5.700;2023-04-03T08:23:47;2.45;;;1.00;;
58581;SDS011;44361;51.476;5.700;2023-04-03T08:26:15;4.13;;;1.02;;
58581;SDS011;44361;51.476;5.700;2023-04-03T08:28:43;7.57;;;0.90;;
58581;SDS011;44361;51.476;5.700;2023-04-03T08:31:10;4.13;;;1.20;;
58581;SDS011;44361;51.476;5.700;2023-04-03T08:33:38;4.72;;;1.17;;
58581;SDS011;44361;51.476;5.700;2023-04-03T08:36:05;3.90;;;0.70;;
58581;SDS011;44361;51.476;5.700;2023-04-03T08:38:40;4.53;;;1.23;;
58581;SDS011;44361;51.476;5.700;2023-04-03T08:46:18;4.00;;;0.80;;
58581;SDS011;44361;51.476;5.700;2023-04-03T08:48:47;3.05;;;0.60;;
58581;SDS011;44361;51.476;5.700;2023-04-03T08:51:16;2.70;;;0.65;;
58581;SDS011;44361;51.476;5.700;2023-04-03T08:53:55;3.17;;;0.90;;
58581;SDS011;44361;51.476;5.700;2023-04-03T08:56:29;2.63;;;0.70;;
58581;SDS011;44361;51.476;5.700;2023-04-03T08:58:56;1.60;;;0.68;;
58581;SDS011;44361;51.476;5.700;2023-04-03T09:01:30;2.45;;;0.65;;
58581;SDS011;44361;51.476;5.700;2023-04-03T09:04:05;2.83;;;0.80;;
58581;SDS011;44361;51.476;5.700;2023-04-03T09:06:36;1.65;;;0.50;;
58581;SDS011;44361;51.476;5.700;2023-04-03T09:17:08;5.68;;;0.73;;
58581;SDS011;44361;51.476;5.700;2023-04-03T09:22:43;1.42;;;0.50;;
58581;SDS011;44361;51.476;5.700;2023-04-03T09:25:13;4.47;;;0.85;;
58581;SDS011;44361;51.476;5.700;2023-04-03T09:27:40;1.83;;;0.57;;
58581;SDS011;44361;51.476;5.700;2023-04-03T09:30:06;1.42;;;0.52;;
58581;SDS011;44361;51.476;5.700;2023-04-03T09:32:37;2.60;;;0.55;;
58581;SDS011;44361;51.476;5.700;2023-04-03T09:35:48;4.25;;;0.60;;
58581;SDS011;44361;51.476;5.700;2023-04-03T09:38:13;2.78;;;0.40;;
58581;SDS011;44361;51.476;5.700;2023-04-03T09:40:45;1.95;;;0.50;;
58581;SDS011;44361;51.476;5.700;2023-04-03T09:43:20;3.03;;;0.55;;
58581;SDS011;44361;51.476;5.700;2023-04-03T09:45:54;0.25;;;0.25;;
58581;SDS011;44361;51.476;5.700;2023-04-03T09:48:25;1.98;;;0.35;;
58581;SDS011;44361;51.476;5.700;2023-04-03T09:50:54;0.93;;;0.40;;
58581;SDS011;44361;51.476;5.700;2023-04-03T09:53:27;0.40;;;0.30;;
58581;SDS011;44361;51.476;5.700;2023-04-03T09:56:09;2.30;;;0.40;;
58581;SDS011;44361;51.476;5.700;2023-04-03T09:58:47;1.63;;;0.35;;
58581;SDS011;44361;51.476;5.700;2023-04-03T10:01:38;1.85;;;0.57;;
58581;SDS011;44361;51.476;5.700;2023-04-03T10:06:39;1.85;;;0.40;;
58581;SDS011;44361;51.476;5.700;2023-04-03T10:09:20;0.68;;;0.30;;
58581;SDS011;44361;51.476;5.700;2023-04-03T10:12:07;2.42;;;0.45;;
58581;SDS011;44361;51.476;5.700;2023-04-03T10:14:36;2.25;;;0.50;;
58581;SDS011;44361;51.476;5.700;2023-04-03T10:20:10;1.13;;;0.30;;
58581;SDS011;44361;51.476;5.700;2023-04-03T10:23:02;0.77;;;0.35;;
58581;SDS011;44361;51.476;5.700;2023-04-03T10:34:36;1.40;;;0.40;;
58581;SDS011;44361;51.476;5.700;2023-04-03T10:37:22;1.20;;;0.30;;
58581;SDS011;44361;51.476;5.700;2023-04-03T10:39:57;1.85;;;0.30;;
58581;SDS011;44361;51.476;5.700;2023-04-03T10:42:42;1.10;;;0.45;;
58581;SDS011;44361;51.476;5.700;2023-04-03T10:45:28;1.83;;;0.30;;
58581;SDS011;44361;51.476;5.700;2023-04-03T10:51:17;2.63;;;0.47;;
58581;SDS011;44361;51.476;5.700;2023-04-03T10:58:48;0.50;;;0.20;;
58581;SDS011;44361;51.476;5.700;2023-04-03T11:01:23;1.50;;;0.20;;
58581;SDS011;44361;51.476;5.700;2023-04-03T11:03:54;1.73;;;0.40;;
58581;SDS011;44361;51.476;5.700;2023-04-03T11:06:24;0.43;;;0.28;;
58581;SDS011;44361;51.476;5.700;2023-04-03T11:08:53;0.90;;;0.28;;
58581;SDS011;44361;51.476;5.700;2023-04-03T11:11:32;4.97;;;0.22;;
58581;SDS011;44361;51.476;5.700;2023-04-03T11:14:03;1.42;;;0.20;;
58581;SDS011;44361;51.476;5.700;2023-04-03T11:19:50;1.75;;;0.40;;
58581;SDS011;44361;51.476;5.700;2023-04-03T11:22:42;2.55;;;0.50;;
58581;SDS011;44361;51.476;5.700;2023-04-03T11:27:40;2.13;;;0.77;;
58581;SDS011;44361;51.476;5.700;2023-04-03T11:30:24;1.08;;;0.57;;
58581;SDS011;44361;51.476;5.700;2023-04-03T11:35:35;1.45;;;0.60;;
58581;SDS011;44361;51.476;5.700;2023-04-03T11:38:01;2.72;;;0.47;;
58581;SDS011;44361;51.476;5.700;2023-04-03T11:40:32;1.40;;;0.50;;
58581;SDS011;44361;51.476;5.700;2023-04-03T12:08:48;1.95;;;0.40;;
58581;SDS011;44361;51.476;5.700;2023-04-03T12:11:29;1.15;;;0.40;;
58581;SDS011;44361;51.476;5.700;2023-04-03T12:14:02;0.90;;;0.30;;
58581;SDS011;44361;51.476;5.700;2023-04-03T12:26:44;2.85;;;0.63;;
58581;SDS011;44361;51.476;5.700;2023-04-03T12:29:27;2.20;;;0.50;;
58581;SDS011;44361;51.476;5.700;2023-04-03T12:37:16;0.75;;;0.30;;
58581;SDS011;44361;51.476;5.700;2023-04-03T12:45:52;2.70;;;0.32;;
58581;SDS011;44361;51.476;5.700;2023-04-03T12:48:30;1.17;;;0.47;;
58581;SDS011;44361;51.476;5.700;2023-04-03T12:50:58;0.50;;;0.40;;
58581;SDS011;44361;51.476;5.700;2023-04-03T12:53:25;3.75;;;0.63;;
58581;SDS011;44361;51.476;5.700;2023-04-03T12:56:18;1.25;;;0.63;;
58581;SDS011;44361;51.476;5.700;2023-04-03T12:58:43;2.85;;;0.55;;
58581;SDS011;44361;51.476;5.700;2023-04-03T13:01:10;3.33;;;0.88;;
58581;SDS011;44361;51.476;5.700;2023-04-03T13:03:45;1.60;;;0.60;;
58581;SDS011;44361;51.476;5.700;2023-04-03T13:06:24;1.08;;;0.40;;
58581;SDS011;44361;51.476;5.700;2023-04-03T13:08:53;0.73;;;0.50;;
58581;SDS011;44361;51.476;5.700;2023-04-03T13:11:22;0.90;;;0.50;;
58581;SDS011;44361;51.476;5.700;2023-04-03T13:13:56;2.72;;;0.80;;
58581;SDS011;44361;51.476;5.700;2023-04-03T13:16:28;1.70;;;0.50;;
58581;SDS011;44361;51.476;5.700;2023-04-03T13:18:54;1.60;;;0.75;;
58581;SDS011;44361;51.476;5.700;2023-04-03T13:21:24;1.27;;;0.63;;
58581;SDS011;44361;51.476;5.700;2023-04-03T13:24:00;1.52;;;0.40;;
58581;SDS011;44361;51.476;5.700;2023-04-03T13:26:29;1.92;;;0.65;;
58581;SDS011;44361;51.476;5.700;2023-04-03T13:29:02;1.67;;;0.73;;
58581;SDS011;44361;51.476;5.700;2023-04-03T13:31:42;2.63;;;1.10;;
58581;SDS011;44361;51.476;5.700;2023-04-03T13:36:37;2.22;;;0.60;;
58581;SDS011;44361;51.476;5.700;2023-04-03T13:39:07;3.63;;;0.68;;
58581;SDS011;44361;51.476;5.700;2023-04-03T13:41:36;1.67;;;0.60;;
58581;SDS011;44361;51.476;5.700;2023-04-03T13:46:51;1.08;;;0.50;;
58581;SDS011;44361;51.476;5.700;2023-04-03T13:49:29;2.17;;;0.75;;
58581;SDS011;44361;51.476;5.700;2023-04-03T13:51:54;2.97;;;0.70;;
58581;SDS011;44361;51.476;5.700;2023-04-03T13:54:24;1.95;;;0.70;;
58581;SDS011;44361;51.476;5.700;2023-04-03T13:56:59;2.08;;;0.50;;
58581;SDS011;44361;51.476;5.700;2023-04-03T14:04:28;2.20;;;0.82;;
58581;SDS011;44361;51.476;5.700;2023-04-03T14:06:56;3.22;;;1.10;;
58581;SDS011;44361;51.476;5.700;2023-04-03T14:09:22;0.90;;;0.50;;
58581;SDS011;44361;51.476;5.700;2023-04-03T14:11:51;1.98;;;0.70;;
58581;SDS011;44361;51.476;5.700;2023-04-03T14:14:30;2.33;;;0.50;;
58581;SDS011;44361;51.476;5.700;2023-04-03T14:16:59;2.35;;;0.70;;
58581;SDS011;44361;51.476;5.700;2023-04-03T14:19:28;1.92;;;0.70;;
58581;SDS011;44361;51.476;5.700;2023-04-03T14:21:57;2.20;;;0.57;;
58581;SDS011;44361;51.476;5.700;2023-04-03T14:24:23;4.05;;;0.80;;
58581;SDS011;44361;51.476;5.700;2023-04-03T14:26:50;2.15;;;0.80;;
58581;SDS011;44361;51.476;5.700;2023-04-03T14:29:18;3.10;;;0.98;;
58581;SDS011;44361;51.476;5.700;2023-04-03T14:31:45;3.05;;;0.80;;
58581;SDS011;44361;51.476;5.700;2023-04-03T14:34:12;1.38;;;0.60;;
58581;SDS011;44361;51.476;5.700;2023-04-03T14:36:39;4.25;;;1.02;;
58581;SDS011;44361;51.476;5.700;2023-04-03T14:39:06;2.53;;;0.70;;
58581;SDS011;44361;51.476;5.700;2023-04-03T14:41:34;2.03;;;0.70;;
58581;SDS011;44361;51.476;5.700;2023-04-03T14:43:59;2.95;;;0.55;;
58581;SDS011;44361;51.476;5.700;2023-04-03T14:46:29;2.60;;;0.60;;
58581;SDS011;44361;51.476;5.700;2023-04-03T14:49:01;2.58;;;0.73;;
58581;SDS011;44361;51.476;5.700;2023-04-03T14:51:27;3.47;;;0.63;;
58581;SDS011;44361;51.476;5.700;2023-04-03T14:53:52;3.05;;;0.73;;
58581;SDS011;44361;51.476;5.700;2023-04-03T14:56:19;1.63;;;0.75;;
58581;SDS011;44361;51.476;5.700;2023-04-03T14:58:48;1.65;;;0.68;;
58581;SDS011;44361;51.476;5.700;2023-04-03T15:01:18;2.83;;;0.68;;
58581;SDS011;44361;51.476;5.700;2023-04-03T15:03:43;1.88;;;0.68;;
58581;SDS011;44361;51.476;5.700;2023-04-03T15:06:12;1.52;;;0.50;;
58581;SDS011;44361;51.476;5.700;2023-04-03T15:08:40;3.42;;;1.13;;
58581;SDS011;44361;51.476;5.700;2023-04-03T15:11:07;1.50;;;0.50;;
58581;SDS011;44361;51.476;5.700;2023-04-03T15:13:34;4.22;;;0.90;;
58581;SDS011;44361;51.476;5.700;2023-04-03T15:16:00;2.10;;;0.80;;
58581;SDS011;44361;51.476;5.700;2023-04-03T15:18:26;2.15;;;0.65;;
58581;SDS011;44361;51.476;5.700;2023-04-03T15:20:55;2.88;;;0.70;;
58581;SDS011;44361;51.476;5.700;2023-04-03T15:23:21;2.88;;;0.80;;
58581;SDS011;44361;51.476;5.700;2023-04-03T15:25:51;2.35;;;0.70;;
58581;SDS011;44361;51.476;5.700;2023-04-03T15:28:25;1.58;;;0.70;;
58581;SDS011;44361;51.476;5.700;2023-04-03T15:31:03;1.63;;;0.60;;
58581;SDS011;44361;51.476;5.700;2023-04-03T15:33:30;3.33;;;0.45;;
58581;SDS011;44361;51.476;5.700;2023-04-03T15:35:57;2.50;;;0.93;;
58581;SDS011;44361;51.476;5.700;2023-04-03T15:38:23;2.53;;;0.77;;
58581;SDS011;44361;51.476;5.700;2023-04-03T15:40:49;3.22;;;0.90;;
58581;SDS011;44361;51.476;5.700;2023-04-03T15:43:15;1.30;;;0.50;;
58581;SDS011;44361;51.476;5.700;2023-04-03T15:45:41;1.67;;;0.70;;
58581;SDS011;44361;51.476;5.700;2023-04-03T15:48:07;2.45;;;0.55;;
58581;SDS011;44361;51.476;5.700;2023-04-03T15:50:33;2.05;;;0.57;;
58581;SDS011;44361;51.476;5.700;2023-04-03T15:52:59;1.95;;;0.63;;
58581;SDS011;44361;51.476;5.700;2023-04-03T15:55:27;4.53;;;0.70;;
58581;SDS011;44361;51.476;5.700;2023-04-03T15:57:54;3.13;;;0.80;;
58581;SDS011;44361;51.476;5.700;2023-04-03T16:00:20;2.45;;;0.77;;
58581;SDS011;44361;51.476;5.700;2023-04-03T16:02:47;1.88;;;0.63;;
58581;SDS011;44361;51.476;5.700;2023-04-03T16:05:15;1.67;;;0.60;;
58581;SDS011;44361;51.476;5.700;2023-04-03T16:07:42;2.45;;;1.00;;
58581;SDS011;44361;51.476;5.700;2023-04-03T16:10:09;0.85;;;0.38;;
58581;SDS011;44361;51.476;5.700;2023-04-03T16:12:35;2.08;;;0.60;;
58581;SDS011;44361;51.476;5.700;2023-04-03T16:15:02;3.92;;;0.90;;
58581;SDS011;44361;51.476;5.700;2023-04-03T16:17:28;2.50;;;0.77;;
58581;SDS011;44361;51.476;5.700;2023-04-03T16:19:54;1.48;;;0.65;;
58581;SDS011;44361;51.476;5.700;2023-04-03T16:22:21;1.05;;;0.50;;
58581;SDS011;44361;51.476;5.700;2023-04-03T16:24:48;1.92;;;0.57;;
58581;SDS011;44361;51.476;5.700;2023-04-03T16:27:14;0.93;;;0.50;;
58581;SDS011;44361;51.476;5.700;2023-04-03T16:29:40;2.33;;;0.70;;
58581;SDS011;44361;51.476;5.700;2023-04-03T16:32:06;2.55;;;0.80;;
58581;SDS011;44361;51.476;5.700;2023-04-03T16:34:31;1.63;;;0.60;;
58581;SDS011;44361;51.476;5.700;2023-04-03T16:36:57;1.55;;;0.73;;
58581;SDS011;44361;51.476;5.700;2023-04-03T16:39:23;2.67;;;0.90;;
58581;SDS011;44361;51.476;5.700;2023-04-03T16:41:48;3.58;;;0.95;;
58581;SDS011;44361;51.476;5.700;2023-04-03T16:44:14;5.45;;;0.93;;